Terminal Aerodrome Forecast
Issued by NWS Sterling, VA

Home | Current Version | Previous Version | Text Only | Print | Product List | Glossary On
Versions: 1 2 3 4 5 6 7 8 9 10 11 12 13 14 15 16 17 18 19 20 21 22 23 24 25 26 27 28 29 30 31
000
FTUS41 KLWX 062327
TAFIAD
TAF
KIAD 062327Z 0700/0806 15007KT P6SM SHRA BKN040
     FM070200 15005KT 5SM BR BKN050
     FM070700 18004KT 5SM BR BKN090
     FM071000 20004KT 3SM BR SCT090
     FM071300 VRB03KT P6SM SCT130
     FM071800 21007KT P6SM FEW040 SCT070=

USA.gov is the U.S. government's official web portal to all federal, state and local government web resources and services.